Webster City, Iowa
Current Conditions -  °F | °C
As of 8:15 AM on Sunday 25 Jan 2015 (Local Time) from KEBS Reporting Station
Haze Haze  
Wind Chill: 24°   Ceiling: 800
Heat Index: 34°   Visibility: 6mi
Dew Point: 34°   Wind: 14mph
Humidity: 100%   Direction: 30°NNE
Pressure: 29.77"   Gusts: 21mph
Location:  42.47°N, 93.82°W
Report Text: KEBS 251415Z AUTO 03012G18KT 6SM BR OVC008 01/01 A2977 RMK AO2
Loading
Personal Weather Stations






























Interactive Weather Map New forecast layout! Learn more

10-Day Weather Forecast

Advertisements
Track Severe Weather on mobile